Time;durP1;ratioP1;P1;durP2;ratioP2;P2;SDS_P1;SDS_P2;PMS_P1;PMS_P2;Temp;Humidity;BMP_temperature;BMP_pressure;BME280_temperature;BME280_humidity;BME280_pressure;Samples;Min_cycle;Max_cycle;Signal;HPM_P1;HPM_P2
2023/05/17 03:03:28;;;;;;;;;;;;;;;6.98;97.24;101754.53;5025101;28;20023;-95
2023/05/17 03:05:54;;;;;;;;;;;;;;;6.98;97.71;101758.84;5026180;28;19925;-95
2023/05/17 03:08:19;;;;;;;;;;;;;;;7.00;97.38;101764.78;5031917;28;19909;-96
2023/05/17 03:10:44;;;;;;;;;;;;;;;7.01;96.83;101764.72;5011774;28;19921;-95
2023/05/17 03:13:10;;;;;;;;;;;;;;;7.03;95.59;101757.00;5026020;28;19917;-95
2023/05/17 03:15:35;;;;;;;;;;;;;;;7.00;95.92;101759.66;5026742;28;19917;-94
2023/05/17 03:18:01;;;;;;;;;;;;;;;7.01;95.55;101764.72;5030750;28;19918;-96
2023/05/17 03:20:26;;;;;;;;;;;;;;;7.01;96.30;101763.91;5034104;28;20364;-96
2023/05/17 03:30:37;;;;;;;;;;;;;;;6.83;96.15;101776.25;6013114;22;19947;-96
2023/05/17 03:33:02;;;;;;;;;;;;;;;6.78;96.85;101779.75;5053167;28;19929;-95
2023/05/17 03:35:27;;;;;;;;;;;;;;;6.81;96.95;101777.16;5069757;28;19917;-96
2023/05/17 03:37:53;;;;;;;;;;;;;;;6.65;98.46;101786.84;5052817;28;19980;-95
2023/05/17 03:40:18;;;;;;;;;;;;;;;6.53;100.00;101781.97;5073693;28;19939;-95
2023/05/17 03:42:44;;;;;;;;;;;;;;;6.66;99.24;101788.56;5078617;28;19901;-96
2023/05/17 03:45:10;;;;;;;;;;;;;;;6.70;98.40;101784.19;5079554;28;19968;-96
2023/05/17 03:47:35;;;;;;;;;;;;;;;6.65;96.24;101797.13;5078187;28;19901;-95
2023/05/17 03:50:01;;;;;;;;;;;;;;;6.58;95.88;101795.53;5078221;28;19916;-96
2023/05/17 03:52:26;;;;;;;;;;;;;;;6.55;96.11;101793.88;5077208;28;19976;-95
2023/05/17 03:54:51;;;;;;;;;;;;;;;6.53;97.01;101798.19;5059284;28;19924;-96
2023/05/17 03:57:18;;;;;;;;;;;;;;;6.53;97.72;101797.34;5075904;28;19916;-95
2023/05/17 03:59:43;;;;;;;;;;;;;;;6.27;99.98;101795.25;5072034;28;19920;-95
2023/05/17 04:02:09;;;;;;;;;;;;;;;6.28;100.00;101808.06;5048541;28;20406;-94
2023/05/17 04:04:34;;;;;;;;;;;;;;;6.19;99.86;101800.53;5052145;28;19917;-95
2023/05/17 04:07:00;;;;;;;;;;;;;;;6.26;99.41;101801.28;5047485;28;19955;-95
2023/05/17 04:09:25;;;;;;;;;;;;;;;6.04;98.90;101809.31;5044535;28;19917;-94
2023/05/17 04:11:50;;;;;;;;;;;;;;;6.00;100.00;101807.69;5223114;22;19975;-95
2023/05/17 04:14:16;;;;;;;;;;;;;;;6.12;99.96;101806.63;5043531;28;20008;-96
2023/05/17 04:16:42;;;;;;;;;;;;;;;6.09;100.00;101807.53;5069257;28;19917;-95
2023/05/17 04:19:07;;;;;;;;;;;;;;;6.06;100.00;101806.75;5054073;28;19988;-96
2023/05/17 04:21:33;;;;;;;;;;;;;;;6.11;100.00;101810.06;5056668;28;19956;-96
2023/05/17 04:23:58;;;;;;;;;;;;;;;6.20;99.52;101815.03;5073939;28;19989;-95
2023/05/17 04:26:23;;;;;;;;;;;;;;;5.75;100.00;101812.31;5050236;28;20018;-96
2023/05/17 04:28:49;;;;;;;;;;;;;;;5.61;100.00;101811.66;5045427;28;19921;-95
2023/05/17 04:33:50;;;;;;;;;;;;;;;5.63;100.00;101812.50;5515460;22;19929;-96
2023/05/17 04:36:16;;;;;;;;;;;;;;;5.65;100.00;101813.31;5067941;28;19921;-95
2023/05/17 04:38:42;;;;;;;;;;;;;;;5.80;100.00;101815.66;5051120;28;19916;-96
2023/05/17 04:41:08;;;;;;;;;;;;;;;5.95;100.00;101820.59;5078347;28;19922;-96
2023/05/17 04:43:33;;;;;;;;;;;;;;;6.06;100.00;101820.41;5079634;28;19925;-96
2023/05/17 04:45:59;;;;;;;;;;;;;;;5.93;100.00;101822.28;5077968;28;19923;-95
2023/05/17 04:48:25;;;;;;;;;;;;;;;5.77;100.00;101820.81;5053048;28;20025;-96
2023/05/17 04:50:51;;;;;;;;;;;;;;;5.88;100.00;101820.69;5079101;28;19917;-96
2023/05/17 04:53:17;;;;;;;;;;;;;;;6.02;100.00;101830.72;5076901;28;19916;-96
2023/05/17 04:55:42;;;;;;;;;;;;;;;6.13;100.00;101821.16;5075149;28;19920;-95
2023/05/17 04:58:08;;;;;;;;;;;;;;;6.16;100.00;101829.63;5075343;28;19932;-96
2023/05/17 05:00:33;;;;;;;;;;;;;;;6.18;100.00;101827.03;5074690;28;19943;-96
2023/05/17 05:02:59;;;;;;;;;;;;;;;6.26;100.00;101827.75;5075427;28;20012;-96
2023/05/17 05:05:24;;;;;;;;;;;;;;;6.37;100.00;101825.84;5074803;28;19923;-96
2023/05/17 05:20:47;;;;;;;;;;;;;;;6.80;100.00;101832.75;5477975;22;21598;-96
2023/05/17 05:23:13;;;;;;;;;;;;;;;6.88;100.00;101839.44;5242879;22;19925;-96
2023/05/17 05:36:10;;;;;;;;;;;;;;;7.43;99.42;101851.16;5093734;22;19935;-96
2023/05/17 05:38:36;;;;;;;;;;;;;;;7.50;100.00;101850.16;5061694;28;19921;-96
2023/05/17 05:41:01;;;;;;;;;;;;;;;7.65;100.00;101849.78;5078858;28;19935;-96
2023/05/17 05:43:26;;;;;;;;;;;;;;;7.66;100.00;101851.50;5078401;28;19901;-96
2023/05/17 05:45:52;;;;;;;;;;;;;;;7.84;99.85;101854.53;5078134;28;19917;-96
2023/05/17 05:48:17;;;;;;;;;;;;;;;7.92;99.12;101862.88;5076396;28;19917;-96
2023/05/17 05:50:43;;;;;;;;;;;;;;;8.01;98.90;101867.81;5058355;28;19917;-96
2023/05/17 05:53:09;;;;;;;;;;;;;;;8.05;99.44;101866.88;5074028;28;19944;-96
2023/05/17 05:55:34;;;;;;;;;;;;;;;8.03;100.00;101865.22;5075404;28;19983;-96
2023/05/17 05:58:00;;;;;;;;;;;;;;;8.12;99.81;101864.97;5053938;28;19924;-96
2023/05/17 06:00:25;;;;;;;;;;;;;;;8.33;98.93;101863.63;5065729;28;20271;-96
2023/05/17 06:02:52;;;;;;;;;;;;;;;8.43;99.79;101870.25;5069618;28;19917;-96
2023/05/17 06:05:17;;;;;;;;;;;;;;;8.52;98.68;101864.88;5068253;28;19984;-96
2023/05/17 06:07:43;;;;;;;;;;;;;;;8.57;97.70;101868.16;5053676;28;19917;-96
2023/05/17 06:10:08;;;;;;;;;;;;;;;8.68;97.67;101869.59;5054972;28;19923;-96
2023/05/17 06:12:33;;;;;;;;;;;;;;;8.74;97.89;101869.47;5036880;28;20416;-96
2023/05/17 06:14:59;;;;;;;;;;;;;;;8.88;96.30;101869.09;5036454;28;19924;-96
2023/05/17 06:17:24;;;;;;;;;;;;;;;9.06;95.04;101872.88;5052821;28;19916;-95
2023/05/17 06:19:49;;;;;;;;;;;;;;;9.17;95.18;101881.16;5053391;28;20015;-94
2023/05/17 06:22:15;;;;;;;;;;;;;;;9.57;94.25;101882.56;5034039;28;19967;-96
2023/05/17 06:24:40;;;;;;;;;;;;;;;10.45;87.32;101871.16;5053288;28;19919;-96
2023/05/17 06:27:06;;;;;;;;;;;;;;;11.62;81.70;101882.44;5041859;28;20038;-95
2023/05/17 06:29:31;;;;;;;;;;;;;;;12.56;75.43;101876.94;5041883;28;19927;-96
2023/05/17 06:31:58;;;;;;;;;;;;;;;13.97;68.99;101877.44;5040461;28;19913;-95
2023/05/17 06:34:23;;;;;;;;;;;;;;;15.09;62.36;101878.72;5037393;28;20073;-94
2023/05/17 06:36:49;;;;;;;;;;;;;;;15.22;61.43;101887.56;5039818;28;20378;-92
2023/05/17 06:39:14;;;;;;;;;;;;;;;16.21;57.55;101894.16;5036966;28;20019;-95
2023/05/17 06:41:39;;;;;;;;;;;;;;;16.34;56.71;101891.72;5040319;28;19975;-96
2023/05/17 06:44:05;;;;;;;;;;;;;;;16.89;55.15;101892.81;5041870;28;20063;-95
2023/05/17 06:46:30;;;;;;;;;;;;;;;16.97;54.80;101900.16;5027105;28;20349;-96
2023/05/17 06:48:55;;;;;;;;;;;;;;;16.68;54.64;101890.53;5045124;28;19925;-95
2023/05/17 06:51:20;;;;;;;;;;;;;;;17.16;53.29;101894.66;5039930;28;19927;-95
2023/05/17 06:53:46;;;;;;;;;;;;;;;17.70;52.67;101898.19;5043776;28;19920;-95
2023/05/17 06:56:11;;;;;;;;;;;;;;;17.44;52.11;101894.63;5048531;28;19975;-93
2023/05/17 06:58:36;;;;;;;;;;;;;;;16.21;55.58;101901.16;5045492;28;19921;-95
2023/05/17 07:01:02;;;;;;;;;;;;;;;16.54;54.40;101900.13;5043069;28;19921;-94
2023/05/17 07:03:27;;;;;;;;;;;;;;;16.68;54.61;101906.19;5045195;28;20298;-96
2023/05/17 07:05:52;;;;;;;;;;;;;;;16.37;55.05;101906.31;5046523;28;19921;-96
2023/05/17 07:08:17;;;;;;;;;;;;;;;15.90;55.76;101902.06;5043011;28;19931;-95
2023/05/17 07:10:43;;;;;;;;;;;;;;;15.88;57.77;101898.72;5037851;28;20011;-96
2023/05/17 07:13:08;;;;;;;;;;;;;;;16.62;54.89;101900.50;5046589;28;19928;-94
2023/05/17 07:15:33;;;;;;;;;;;;;;;17.68;53.29;101900.03;5038485;28;19924;-96
2023/05/17 07:17:59;;;;;;;;;;;;;;;17.35;53.58;101897.78;5038377;28;19931;-96
2023/05/17 07:20:24;;;;;;;;;;;;;;;17.24;54.48;101892.41;5056192;28;19917;-95
2023/05/17 07:25:21;;;;;;;;;;;;;;;17.34;53.33;101903.97;5040513;28;19925;-94
2023/05/17 07:27:46;;;;;;;;;;;;;;;16.95;54.45;101908.09;5022333;28;19975;-96
2023/05/17 07:30:12;;;;;;;;;;;;;;;16.87;54.94;101912.91;5004354;28;20003;-96
2023/05/17 07:32:40;;;;;;;;;;;;;;;17.70;52.95;101905.16;5168844;22;19924;-96
2023/05/17 07:37:32;;;;;;;;;;;;;;;17.05;53.27;101913.59;5034522;28;20418;-96
2023/05/17 07:39:57;;;;;;;;;;;;;;;17.43;53.20;101916.41;5025556;28;19922;-96
2023/05/17 07:42:23;;;;;;;;;;;;;;;17.57;53.42;101919.94;5024789;28;19917;-95
2023/05/17 07:44:48;;;;;;;;;;;;;;;17.54;53.89;101927.03;5018616;28;19924;-96
2023/05/17 07:47:14;;;;;;;;;;;;;;;17.47;54.22;101930.13;5028792;28;19928;-96
2023/05/17 07:49:39;;;;;;;;;;;;;;;17.68;52.56;101933.13;5033096;28;19972;-95
2023/05/17 07:52:05;;;;;;;;;;;;;;;17.49;53.05;101933.47;5025654;28;19921;-96
2023/05/17 07:54:30;;;;;;;;;;;;;;;17.36;52.31;101924.72;5011406;28;19928;-96
2023/05/17 07:56:55;;;;;;;;;;;;;;;17.46;51.69;101929.28;5005379;28;19929;-96
2023/05/17 07:59:21;;;;;;;;;;;;;;;17.68;52.95;101941.84;5009849;28;19921;-96
2023/05/17 08:01:47;;;;;;;;;;;;;;;17.06;53.17;101936.97;5020088;28;19956;-96
2023/05/17 08:04:13;;;;;;;;;;;;;;;17.44;52.46;101930.31;5007423;28;19925;-96
2023/05/17 08:06:38;;;;;;;;;;;;;;;17.67;52.10;101928.84;5015939;28;19925;-96
2023/05/17 08:09:04;;;;;;;;;;;;;;;18.12;51.72;101926.88;5007194;28;20079;-96
2023/05/17 08:11:30;;;;;;;;;;;;;;;17.58;50.91;101927.69;5019227;28;19917;-96
2023/05/17 08:16:30;;;;;;;;;;;;;;;18.07;51.45;101923.69;5143363;22;19925;-96
2023/05/17 08:18:55;;;;;;;;;;;;;;;18.47;50.41;101931.53;5062342;28;20015;-96
2023/05/17 08:21:21;;;;;;;;;;;;;;;18.09;51.61;101937.50;5042429;28;19913;-96
2023/05/17 08:23:47;;;;;;;;;;;;;;;17.94;51.97;101940.16;5062800;28;19968;-96
2023/05/17 08:26:12;;;;;;;;;;;;;;;17.92;50.94;101933.38;5067462;28;19916;-96
2023/05/17 08:28:37;;;;;;;;;;;;;;;17.64;52.26;101932.50;5056206;28;20029;-95
2023/05/17 08:31:03;;;;;;;;;;;;;;;16.78;54.36;101936.94;5046752;28;19921;-96
2023/05/17 08:33:28;;;;;;;;;;;;;;;16.67;55.68;101935.78;5291570;22;19964;-96
2023/05/17 08:35:54;;;;;;;;;;;;;;;17.15;55.48;101937.34;5036659;28;19933;-95
2023/05/17 08:38:20;;;;;;;;;;;;;;;16.67;55.41;101940.16;5055655;28;19975;-96
2023/05/17 08:40:52;;;;;;;;;;;;;;;16.15;57.69;101941.44;5054725;28;19920;-96
2023/05/17 08:43:17;;;;;;;;;;;;;;;16.31;57.79;101940.53;5039443;28;19960;-96
2023/05/17 08:45:42;;;;;;;;;;;;;;;16.52;56.80;101941.06;5060981;28;19924;-96
2023/05/17 08:48:08;;;;;;;;;;;;;;;16.46;56.99;101939.66;5067647;28;19921;-96
2023/05/17 08:50:34;;;;;;;;;;;;;;;16.26;57.64;101938.19;5322465;22;19979;-96
2023/05/17 08:53:00;;;;;;;;;;;;;;;16.73;55.03;101944.16;5035091;28;19929;-96
2023/05/17 08:55:28;;;;;;;;;;;;;;;16.97;55.47;101940.16;5035974;28;20363;-94
2023/05/17 08:57:53;;;;;;;;;;;;;;;17.30;54.67;101939.84;5035460;28;20301;-95
2023/05/17 09:00:20;;;;;;;;;;;;;;;17.52;54.95;101939.34;5034242;28;19983;-93
2023/05/17 09:02:46;;;;;;;;;;;;;;;17.48;54.33;101931.78;5035757;28;20422;-96
2023/05/17 09:05:12;;;;;;;;;;;;;;;17.14;54.74;101930.44;5037007;28;19956;-93
2023/05/17 09:07:37;;;;;;;;;;;;;;;17.41;54.98;101930.50;5038225;28;20007;-96
2023/05/17 09:10:04;;;;;;;;;;;;;;;17.25;52.84;101928.00;5036506;28;19956;-96
2023/05/17 09:12:33;;;;;;;;;;;;;;;17.35;54.35;101928.28;5032885;28;19921;-94
2023/05/17 09:15:10;;;;;;;;;;;;;;;17.25;54.81;101925.41;5033391;28;20388;-92
2023/05/17 09:17:36;;;;;;;;;;;;;;;17.64;53.22;101918.63;5033460;28;19975;-92
2023/05/17 09:20:01;;;;;;;;;;;;;;;18.35;53.42;101918.31;5015371;28;19921;-95
2023/05/17 09:22:27;;;;;;;;;;;;;;;18.71;51.79;101929.03;5034636;28;20375;-94
2023/05/17 09:24:52;;;;;;;;;;;;;;;18.68;51.72;101921.38;5034033;28;19917;-93
2023/05/17 09:27:17;;;;;;;;;;;;;;;18.83;49.94;101919.56;5033074;28;20366;-94
2023/05/17 09:29:44;;;;;;;;;;;;;;;18.73;49.35;101927.16;5033723;28;20290;-95
2023/05/17 09:32:13;;;;;;;;;;;;;;;18.78;52.88;101915.47;5033692;28;19917;-93
2023/05/17 09:34:42;;;;;;;;;;;;;;;18.16;51.27;101915.25;5033715;28;19921;-94
2023/05/17 09:37:14;;;;;;;;;;;;;;;18.61;51.21;101918.38;5016239;28;19913;-93
2023/05/17 09:39:40;;;;;;;;;;;;;;;19.08;49.65;101916.91;5032906;28;19921;-94
2023/05/17 09:42:06;;;;;;;;;;;;;;;19.24;49.34;101922.72;5014114;28;19917;-93
2023/05/17 09:44:43;;;;;;;;;;;;;;;19.31;49.00;101907.41;5013961;28;19964;-94
2023/05/17 09:47:09;;;;;;;;;;;;;;;19.54;47.45;101908.41;5013863;28;19917;-91
2023/05/17 09:49:34;;;;;;;;;;;;;;;19.93;49.85;101906.47;5020738;28;20345;-92
2023/05/17 09:52:06;;;;;;;;;;;;;;;19.87;48.63;101917.38;5033812;28;19917;-92
2023/05/17 09:54:36;;;;;;;;;;;;;;;19.57;48.47;101913.41;5033601;28;19971;-92
2023/05/17 09:57:06;;;;;;;;;;;;;;;20.33;47.78;101915.78;5019310;28;20304;-91
2023/05/17 09:59:31;;;;;;;;;;;;;;;19.73;49.23;101913.19;5037245;28;19917;-90
2023/05/17 10:01:58;;;;;;;;;;;;;;;19.38;49.31;101913.06;5032810;28;19928;-96
2023/05/17 10:04:27;;;;;;;;;;;;;;;19.23;48.35;101913.19;5028326;28;20245;-94
2023/05/17 10:06:53;;;;;;;;;;;;;;;18.60;50.73;101906.22;5015236;28;20386;-95
2023/05/17 10:09:20;;;;;;;;;;;;;;;18.52;51.23;101906.75;5014437;28;19936;-94
2023/05/17 10:11:46;;;;;;;;;;;;;;;19.48;48.74;101893.09;5031622;28;19925;-96
2023/05/17 10:16:49;;;;;;;;;;;;;;;19.49;48.28;101902.66;5045722;22;19925;-95
2023/05/17 10:19:18;;;;;;;;;;;;;;;19.64;48.56;101893.69;5060102;22;19932;-93
2023/05/17 10:21:43;;;;;;;;;;;;;;;20.40;45.82;101882.88;5012659;28;19926;-95
2023/05/17 10:24:10;;;;;;;;;;;;;;;19.84;47.64;101894.03;5011989;28;20011;-95
2023/05/17 10:26:35;;;;;;;;;;;;;;;20.73;47.93;101882.13;5092236;22;19901;-96
2023/05/17 10:29:04;;;;;;;;;;;;;;;21.47;45.31;101884.19;5039663;28;19932;-95
2023/05/17 10:31:32;;;;;;;;;;;;;;;21.66;45.82;101880.91;5015392;28;20060;-95
2023/05/17 10:33:57;;;;;;;;;;;;;;;21.43;43.52;101874.88;5031876;28;19944;-93
2023/05/17 10:36:23;;;;;;;;;;;;;;;20.56;46.99;101880.81;5016076;28;20363;-94
2023/05/17 10:38:49;;;;;;;;;;;;;;;20.59;44.91;101877.94;5027851;28;19901;-96
2023/05/17 10:41:16;;;;;;;;;;;;;;;21.58;44.09;101879.75;5078732;22;19925;-96
2023/05/17 10:43:42;;;;;;;;;;;;;;;22.13;42.89;101878.78;5049750;28;19921;-96
2023/05/17 10:46:13;;;;;;;;;;;;;;;21.77;43.25;101879.06;5036437;28;19925;-96
2023/05/17 10:48:39;;;;;;;;;;;;;;;22.30;42.69;101880.03;5031429;28;19975;-95
2023/05/17 10:51:06;;;;;;;;;;;;;;;21.18;42.96;101876.81;5030937;28;19925;-93
2023/05/17 10:53:31;;;;;;;;;;;;;;;21.23;43.94;101874.66;5017211;28;19967;-96
2023/05/17 10:55:57;;;;;;;;;;;;;;;20.30;45.34;101880.97;5038198;28;20422;-94
2023/05/17 10:58:24;;;;;;;;;;;;;;;20.81;44.91;101871.84;5029886;28;19921;-95
2023/05/17 11:00:53;;;;;;;;;;;;;;;20.57;45.96;101871.97;5031742;28;19917;-95
2023/05/17 11:03:19;;;;;;;;;;;;;;;22.25;42.84;101866.44;5033814;28;19925;-96
2023/05/17 11:06:04;;;;;;;;;;;;;;;22.09;42.76;101867.66;5035840;28;20387;-95
2023/05/17 11:08:29;;;;;;;;;;;;;;;20.78;44.01;101859.00;5037492;28;19925;-96
2023/05/17 11:11:08;;;;;;;;;;;;;;;19.85;44.71;101865.13;5036033;28;19935;-96
2023/05/17 11:13:33;;;;;;;;;;;;;;;20.91;43.43;101853.59;5011362;28;19921;-95
2023/05/17 11:16:03;;;;;;;;;;;;;;;21.57;42.31;101850.97;5053107;28;20426;-94
2023/05/17 11:18:44;;;;;;;;;;;;;;;21.09;43.01;101852.16;5038269;28;19921;-95
2023/05/17 11:21:12;;;;;;;;;;;;;;;21.44;41.88;101845.06;5013976;28;19968;-95
2023/05/17 11:23:38;;;;;;;;;;;;;;;21.44;43.72;101850.31;5032865;28;20690;-96
2023/05/17 11:26:32;;;;;;;;;;;;;;;20.31;45.43;101858.19;5014195;28;19921;-96
2023/05/17 11:29:03;;;;;;;;;;;;;;;20.05;45.60;101845.28;5018641;28;19928;-95
2023/05/17 11:31:32;;;;;;;;;;;;;;;20.87;45.37;101842.53;5011093;28;19925;-96
2023/05/17 11:33:59;;;;;;;;;;;;;;;21.09;44.71;101851.31;4995034;28;20307;-95
2023/05/17 11:36:24;;;;;;;;;;;;;;;21.20;43.05;101846.03;5012557;28;19913;-95
2023/05/17 11:39:07;;;;;;;;;;;;;;;21.68;42.69;101843.06;5011419;28;20283;-96
2023/05/17 11:41:35;;;;;;;;;;;;;;;21.72;44.93;101844.44;5014412;28;19921;-96
2023/05/17 11:44:01;;;;;;;;;;;;;;;21.92;42.12;101849.84;5014228;28;19917;-96
2023/05/17 11:46:26;;;;;;;;;;;;;;;22.91;40.73;101851.06;5032081;28;19924;-96
2023/05/17 11:48:52;;;;;;;;;;;;;;;23.09;39.09;101853.91;5027370;28;19956;-96
2023/05/17 11:51:18;;;;;;;;;;;;;;;22.47;39.43;101845.22;5007927;28;19960;-96
2023/05/17 11:53:45;;;;;;;;;;;;;;;22.16;40.31;101842.53;4994670;28;19972;-95
2023/05/17 11:56:11;;;;;;;;;;;;;;;23.46;40.21;101843.56;4995480;28;19917;-95
2023/05/17 11:58:37;;;;;;;;;;;;;;;24.02;38.63;101838.53;4994869;28;19921;-95
2023/05/17 12:01:03;;;;;;;;;;;;;;;24.84;38.12;101844.94;5012346;28;20371;-95
2023/05/17 12:03:29;;;;;;;;;;;;;;;25.12;36.52;101840.47;4996479;28;19953;-95
2023/05/17 12:06:03;;;;;;;;;;;;;;;24.88;35.92;101852.44;4998389;28;19956;-96
2023/05/17 12:08:29;;;;;;;;;;;;;;;24.42;35.84;101846.22;5015220;28;20367;-96
2023/05/17 12:10:55;;;;;;;;;;;;;;;24.77;35.65;101837.63;5015761;28;20288;-95
2023/05/17 12:13:21;;;;;;;;;;;;;;;24.09;36.14;101844.91;5017585;28;19921;-96
2023/05/17 12:15:56;;;;;;;;;;;;;;;24.50;35.60;101834.97;5017787;28;20320;-95
2023/05/17 12:18:21;;;;;;;;;;;;;;;24.64;36.72;101838.94;5035073;28;19917;-95
2023/05/17 12:20:54;;;;;;;;;;;;;;;24.62;36.71;101839.06;5035083;28;20006;-96
2023/05/17 12:23:24;;;;;;;;;;;;;;;24.30;35.96;101827.09;5035480;28;19917;-96
2023/05/17 12:25:49;;;;;;;;;;;;;;;24.05;38.30;101833.00;5035044;28;20007;-95
2023/05/17 12:28:17;;;;;;;;;;;;;;;22.19;38.88;101834.41;5033970;28;19921;-96
2023/05/17 12:30:42;;;;;;;;;;;;;;;22.64;40.37;101828.81;5017244;28;20375;-94
2023/05/17 12:33:08;;;;;;;;;;;;;;;21.63;40.71;101821.56;5017307;28;20016;-95
2023/05/17 12:35:33;;;;;;;;;;;;;;;22.09;41.69;101820.34;5017208;28;19917;-95
2023/05/17 12:37:59;;;;;;;;;;;;;;;21.67;42.26;101822.16;5013742;28;19918;-95
2023/05/17 12:40:24;;;;;;;;;;;;;;;20.99;42.10;101818.88;5013812;28;20291;-95
2023/05/17 12:42:49;;;;;;;;;;;;;;;21.32;42.00;101815.34;5014776;28;19967;-96
2023/05/17 12:45:15;;;;;;;;;;;;;;;22.41;41.46;101814.16;5017906;28;20265;-95
2023/05/17 12:47:41;;;;;;;;;;;;;;;22.53;39.50;101823.66;5017187;28;19917;-95
2023/05/17 12:50:07;;;;;;;;;;;;;;;23.30;38.98;101822.19;5016998;28;20399;-96
2023/05/17 12:52:33;;;;;;;;;;;;;;;24.16;37.15;101821.44;5016945;28;19967;-96
2023/05/17 12:54:58;;;;;;;;;;;;;;;24.52;37.62;101814.53;5016813;28;19922;-94
2023/05/17 12:57:23;;;;;;;;;;;;;;;23.77;36.27;101819.72;5034498;28;19913;-94
2023/05/17 12:59:50;;;;;;;;;;;;;;;23.18;37.13;101815.38;5034347;28;19925;-95
2023/05/17 13:02:16;;;;;;;;;;;;;;;22.48;39.85;101819.75;5015635;28;20023;-95
2023/05/17 13:04:42;;;;;;;;;;;;;;;22.32;40.04;101818.44;5016710;28;20012;-94
2023/05/17 13:07:07;;;;;;;;;;;;;;;22.56;38.30;101812.88;5016615;28;19952;-95
2023/05/17 13:09:33;;;;;;;;;;;;;;;22.61;39.61;101810.66;5016528;28;19964;-95
2023/05/17 13:11:59;;;;;;;;;;;;;;;23.44;38.33;101803.34;5016466;28;20007;-96
2023/05/17 13:14:34;;;;;;;;;;;;;;;23.86;36.65;101799.59;5016140;28;19917;-96
2023/05/17 13:17:00;;;;;;;;;;;;;;;23.45;37.50;101805.00;5016547;28;20275;-92
2023/05/17 13:19:25;;;;;;;;;;;;;;;23.21;39.82;101796.66;5033469;28;19924;-95
2023/05/17 13:21:50;;;;;;;;;;;;;;;22.78;38.86;101800.47;5034009;28;19924;-94
2023/05/17 13:24:15;;;;;;;;;;;;;;;22.83;39.37;101804.34;5033859;28;19925;-96
2023/05/17 13:26:41;;;;;;;;;;;;;;;23.17;39.28;101800.56;5016185;28;19988;-95
2023/05/17 13:29:06;;;;;;;;;;;;;;;22.83;38.29;101804.34;5033688;28;20326;-95
2023/05/17 13:31:31;;;;;;;;;;;;;;;22.55;40.01;101798.03;5034023;28;19990;-96
2023/05/17 13:33:56;;;;;;;;;;;;;;;22.71;39.81;101794.06;5016077;28;19913;-96
2023/05/17 13:36:22;;;;;;;;;;;;;;;22.82;38.82;101797.44;5014983;28;19917;-95
2023/05/17 13:38:48;;;;;;;;;;;;;;;23.27;39.56;101796.13;5015852;28;19917;-95
2023/05/17 13:41:14;;;;;;;;;;;;;;;22.90;37.85;101794.13;5015834;28;19928;-95
2023/05/17 13:43:39;;;;;;;;;;;;;;;22.97;39.37;101792.63;5015873;28;20435;-95
2023/05/17 13:46:05;;;;;;;;;;;;;;;23.14;37.90;101782.38;5015706;28;20008;-96
2023/05/17 13:48:30;;;;;;;;;;;;;;;22.66;40.39;101781.31;5015536;28;19971;-95
2023/05/17 13:50:55;;;;;;;;;;;;;;;22.78;40.22;101787.31;5015917;28;20004;-94
2023/05/17 13:53:21;;;;;;;;;;;;;;;22.96;40.23;101788.28;5029054;28;20004;-95
2023/05/17 13:55:46;;;;;;;;;;;;;;;22.48;39.47;101789.00;5013514;28;19964;-95
2023/05/17 13:58:12;;;;;;;;;;;;;;;21.47;43.38;101792.25;4996140;28;19956;-95
2023/05/17 14:00:40;;;;;;;;;;;;;;;21.12;43.59;101790.69;4996012;28;19917;-96
2023/05/17 14:03:05;;;;;;;;;;;;;;;20.55;44.88;101789.06;4996139;28;19940;-94
2023/05/17 14:05:32;;;;;;;;;;;;;;;20.53;43.99;101782.16;4995788;28;20356;-94
2023/05/17 14:07:57;;;;;;;;;;;;;;;20.44;43.32;101779.44;4995792;28;19924;-96
2023/05/17 14:10:22;;;;;;;;;;;;;;;20.41;45.44;101775.25;5017839;28;20333;-95
2023/05/17 14:12:47;;;;;;;;;;;;;;;20.26;46.84;101781.66;5015445;28;20375;-95
2023/05/17 14:15:13;;;;;;;;;;;;;;;20.28;44.56;101774.53;5015595;28;19921;-95
2023/05/17 14:17:38;;;;;;;;;;;;;;;20.23;45.99;101771.44;5015289;28;19960;-95
2023/05/17 14:20:04;;;;;;;;;;;;;;;20.13;45.40;101768.69;5015528;28;19917;-95
2023/05/17 14:22:29;;;;;;;;;;;;;;;20.48;42.40;101762.47;5015483;28;19917;-95
2023/05/17 14:24:55;;;;;;;;;;;;;;;20.88;42.71;101759.38;5014891;28;19971;-94
2023/05/17 14:27:20;;;;;;;;;;;;;;;21.15;40.85;101758.94;5028196;28;19918;-96
2023/05/17 14:29:45;;;;;;;;;;;;;;;21.07;40.50;101753.44;4995398;28;19917;-94
2023/05/17 14:32:12;;;;;;;;;;;;;;;21.69;39.70;101759.78;4995724;28;19960;-94
2023/05/17 14:34:38;;;;;;;;;;;;;;;21.56;41.11;101759.97;4995265;28;19921;-94
2023/05/17 14:37:03;;;;;;;;;;;;;;;21.27;39.59;101755.31;5012937;28;19925;-95
2023/05/17 14:39:28;;;;;;;;;;;;;;;20.73;40.89;101757.00;4995399;28;19917;-94
2023/05/17 14:41:54;;;;;;;;;;;;;;;20.85;39.96;101757.81;5013018;28;20291;-93
2023/05/17 14:44:19;;;;;;;;;;;;;;;20.83;40.23;101756.28;5014058;28;19917;-95
2023/05/17 14:46:45;;;;;;;;;;;;;;;21.21;43.21;101750.53;5014969;28;19917;-96
2023/05/17 14:49:10;;;;;;;;;;;;;;;21.56;40.92;101754.72;5032500;28;19923;-96
2023/05/17 14:51:36;;;;;;;;;;;;;;;21.48;40.12;101746.63;5015130;28;19917;-95
2023/05/17 14:54:02;;;;;;;;;;;;;;;21.22;41.24;101746.97;5032691;28;20034;-95
2023/05/17 14:56:27;;;;;;;;;;;;;;;20.99;41.02;101745.38;5014996;28;19917;-95
2023/05/17 14:58:52;;;;;;;;;;;;;;;20.67;41.41;101747.00;5014913;28;19925;-96
2023/05/17 15:01:18;;;;;;;;;;;;;;;20.73;42.64;101750.94;5014538;28;19928;-94
2023/05/17 15:03:43;;;;;;;;;;;;;;;20.80;43.00;101752.13;5032268;28;19993;-94
2023/05/17 15:06:08;;;;;;;;;;;;;;;20.91;42.39;101744.19;5032409;28;19983;-95
2023/05/17 15:08:34;;;;;;;;;;;;;;;20.81;41.33;101740.66;5014487;28;19917;-94
2023/05/17 15:10:59;;;;;;;;;;;;;;;20.57;40.94;101745.22;5032486;28;19917;-94
2023/05/17 15:13:25;;;;;;;;;;;;;;;20.37;43.66;101739.72;5014643;28;19971;-95
2023/05/17 15:15:51;;;;;;;;;;;;;;;20.41;42.74;101738.53;5014955;28;19917;-94
2023/05/17 15:18:17;;;;;;;;;;;;;;;19.63;43.58;101745.34;5013828;28;20019;-94
2023/05/17 15:20:42;;;;;;;;;;;;;;;19.62;44.85;101738.41;5032365;28;20395;-95
2023/05/17 15:23:07;;;;;;;;;;;;;;;19.30;45.88;101737.38;5014384;28;20279;-93
2023/05/17 15:25:33;;;;;;;;;;;;;;;19.90;42.96;101731.16;5032337;28;19924;-95
2023/05/17 15:27:58;;;;;;;;;;;;;;;19.52;45.98;101737.44;5031936;28;20374;-96
2023/05/17 15:30:26;;;;;;;;;;;;;;;19.43;47.49;101736.38;5032414;28;20393;-94
2023/05/17 15:32:52;;;;;;;;;;;;;;;19.64;46.49;101727.84;5032388;28;19959;-94
2023/05/17 15:35:17;;;;;;;;;;;;;;;19.98;45.44;101733.16;5031513;28;19917;-94
2023/05/17 15:37:42;;;;;;;;;;;;;;;19.46;44.95;101732.69;5034128;28;19923;-95
2023/05/17 15:40:08;;;;;;;;;;;;;;;19.17;44.87;101727.81;5018192;28;19913;-95
2023/05/17 15:42:33;;;;;;;;;;;;;;;18.92;45.70;101733.13;5017951;28;19928;-94
2023/05/17 15:44:59;;;;;;;;;;;;;;;19.31;45.16;101728.56;5018364;28;19913;-95
2023/05/17 15:47:24;;;;;;;;;;;;;;;19.64;45.71;101726.03;5017917;28;20032;-94
2023/05/17 15:49:49;;;;;;;;;;;;;;;19.48;45.64;101738.63;5018077;28;19967;-95
2023/05/17 15:52:15;;;;;;;;;;;;;;;19.61;45.43;101741.19;5017068;28;19972;-94
2023/05/17 15:54:41;;;;;;;;;;;;;;;19.62;45.77;101742.84;5014393;28;20015;-95
2023/05/17 15:57:06;;;;;;;;;;;;;;;19.62;45.09;101746.28;5014874;28;19980;-94
2023/05/17 15:59:31;;;;;;;;;;;;;;;19.61;45.38;101742.00;5015657;28;19917;-94
2023/05/17 16:01:57;;;;;;;;;;;;;;;19.60;47.06;101742.09;5014367;28;19918;-95
2023/05/17 16:04:22;;;;;;;;;;;;;;;19.28;44.94;101744.50;5016047;28;20375;-94
2023/05/17 16:06:47;;;;;;;;;;;;;;;19.48;45.72;101745.63;5028350;28;19921;-94
2023/05/17 16:09:13;;;;;;;;;;;;;;;19.52;45.29;101742.69;5031438;28;20490;-94
2023/05/17 16:11:38;;;;;;;;;;;;;;;19.21;45.42;101741.50;5029270;28;19925;-95
2023/05/17 16:14:03;;;;;;;;;;;;;;;18.72;46.87;101735.38;5017282;28;20071;-94
2023/05/17 16:16:29;;;;;;;;;;;;;;;19.30;45.37;101740.00;5017020;28;20341;-95
2023/05/17 16:18:56;;;;;;;;;;;;;;;19.09;46.53;101737.97;5005174;28;19974;-94